Terminal Aerodrome Forecast
Issued by NWS Bismarck, ND

Home | Current Version | Previous Version | Text Only | Print | Product List | Glossary Off
Versions: 1 2 3 4 5 6 7 8 9 10 11 12 13 14 15 16 17 18 19 20 21 22

540
FTUS43 KBIS 232340
TAFBIS
TAF
KBIS 232340Z 2400/2424 10011KT P6SM OVC010
     FM240300 10011KT 5SM BR OVC008
     FM240600 11011KT 3SM BR BKN025
      TEMPO 2406/2408 FEW030 SCT200
     FM240800 12011KT P6SM VCFG SCT200 WS020/16040KT
     FM241600 16011KT P6SM SCT045
     FM241800 18015G22KT P6SM BKN050=

USA.gov is the U.S. government's official web portal to all federal, state and local government web resources and services.